Eoline, Alabama
Current Conditions -  °F | °C
As of 9:53 PM on Saturday 20 Dec 2014 (Local Time) from KEET Reporting Station
Overcast Overcast  
Wind Chill:   Ceiling: 3400
Heat Index:   Visibility: 10mi
Dew Point:   Wind: 5mph
Humidity: 77%   Direction: 10°N
Pressure: 30.19"   Gusts: NA
Location:  32.9085°N, 87.0467°W
Report Text: KEET 210353Z AUTO 01004KT 10SM OVC034 09/05 A3019 RMK AO2 SLP224 T00890050
Loading
Personal Weather Stations






























Interactive Weather Map New forecast layout! Learn more

10-Day Weather Forecast

Advertisements
Track Severe Weather on mobile